sensor_id;sensor_type;location;lat;lon;timestamp;P1;durP1;ratioP1;P2;durP2;ratioP2
10452;SDS011;5274;51.992;8.518;2023-08-31T00:00:29;57.20;;;53.40;;
10452;SDS011;5274;51.992;8.518;2023-08-31T00:02:57;58.28;;;54.00;;
10452;SDS011;5274;51.992;8.518;2023-08-31T00:05:23;58.50;;;54.45;;
10452;SDS011;5274;51.992;8.518;2023-08-31T00:07:52;57.47;;;53.72;;
10452;SDS011;5274;51.992;8.518;2023-08-31T00:10:18;58.65;;;54.45;;
10452;SDS011;5274;51.992;8.518;2023-08-31T00:12:44;56.42;;;52.80;;
10452;SDS011;5274;51.992;8.518;2023-08-31T00:15:10;55.78;;;52.17;;
10452;SDS011;5274;51.992;8.518;2023-08-31T00:17:36;57.70;;;53.75;;
10452;SDS011;5274;51.992;8.518;2023-08-31T00:20:03;56.13;;;52.22;;
10452;SDS011;5274;51.992;8.518;2023-08-31T00:22:31;55.42;;;51.70;;
10452;SDS011;5274;51.992;8.518;2023-08-31T00:24:57;55.58;;;51.88;;
10452;SDS011;5274;51.992;8.518;2023-08-31T00:27:23;53.55;;;50.05;;
10452;SDS011;5274;51.992;8.518;2023-08-31T00:29:49;54.25;;;50.60;;
10452;SDS011;5274;51.992;8.518;2023-08-31T00:32:16;55.95;;;51.90;;
10452;SDS011;5274;51.992;8.518;2023-08-31T00:34:43;54.35;;;50.50;;
10452;SDS011;5274;51.992;8.518;2023-08-31T00:37:09;55.53;;;52.03;;
10452;SDS011;5274;51.992;8.518;2023-08-31T00:39:35;57.63;;;53.85;;
10452;SDS011;5274;51.992;8.518;2023-08-31T00:42:01;57.15;;;52.75;;
10452;SDS011;5274;51.992;8.518;2023-08-31T00:44:28;56.58;;;52.72;;
10452;SDS011;5274;51.992;8.518;2023-08-31T00:46:54;56.83;;;52.83;;
10452;SDS011;5274;51.992;8.518;2023-08-31T00:49:20;53.08;;;49.40;;
10452;SDS011;5274;51.992;8.518;2023-08-31T00:51:46;53.97;;;50.40;;
10452;SDS011;5274;51.992;8.518;2023-08-31T00:54:18;54.15;;;50.75;;
10452;SDS011;5274;51.992;8.518;2023-08-31T00:56:46;52.85;;;49.15;;
10452;SDS011;5274;51.992;8.518;2023-08-31T00:59:12;51.63;;;48.03;;
10452;SDS011;5274;51.992;8.518;2023-08-31T01:01:41;52.60;;;49.20;;
10452;SDS011;5274;51.992;8.518;2023-08-31T01:07:01;55.63;;;51.50;;
10452;SDS011;5274;51.992;8.518;2023-08-31T01:09:37;55.67;;;52.13;;
10452;SDS011;5274;51.992;8.518;2023-08-31T01:12:40;57.53;;;53.33;;
10452;SDS011;5274;51.992;8.518;2023-08-31T01:14:59;54.03;;;50.45;;
10452;SDS011;5274;51.992;8.518;2023-08-31T01:17:29;53.38;;;49.88;;
10452;SDS011;5274;51.992;8.518;2023-08-31T01:19:57;53.97;;;49.85;;
10452;SDS011;5274;51.992;8.518;2023-08-31T01:22:29;52.85;;;49.28;;
10452;SDS011;5274;51.992;8.518;2023-08-31T01:24:56;54.17;;;50.40;;
10452;SDS011;5274;51.992;8.518;2023-08-31T01:27:22;53.67;;;50.10;;
10452;SDS011;5274;51.992;8.518;2023-08-31T01:29:49;52.47;;;49.10;;
10452;SDS011;5274;51.992;8.518;2023-08-31T01:32:15;54.13;;;50.33;;
10452;SDS011;5274;51.992;8.518;2023-08-31T01:34:41;53.55;;;49.92;;
10452;SDS011;5274;51.992;8.518;2023-08-31T01:37:17;53.40;;;49.90;;
10452;SDS011;5274;51.992;8.518;2023-08-31T01:39:46;53.60;;;50.05;;
10452;SDS011;5274;51.992;8.518;2023-08-31T01:42:15;57.35;;;53.20;;
10452;SDS011;5274;51.992;8.518;2023-08-31T01:44:41;52.55;;;49.08;;
10452;SDS011;5274;51.992;8.518;2023-08-31T01:47:08;55.13;;;51.53;;
10452;SDS011;5274;51.992;8.518;2023-08-31T01:49:37;55.30;;;51.15;;
10452;SDS011;5274;51.992;8.518;2023-08-31T01:52:04;53.17;;;49.67;;
10452;SDS011;5274;51.992;8.518;2023-08-31T01:54:30;52.92;;;49.45;;
10452;SDS011;5274;51.992;8.518;2023-08-31T01:56:56;53.17;;;49.67;;
10452;SDS011;5274;51.992;8.518;2023-08-31T01:59:22;54.45;;;50.30;;
10452;SDS011;5274;51.992;8.518;2023-08-31T02:01:48;54.65;;;50.97;;
10452;SDS011;5274;51.992;8.518;2023-08-31T02:04:14;55.55;;;51.75;;
10452;SDS011;5274;51.992;8.518;2023-08-31T02:06:40;55.35;;;51.60;;
10452;SDS011;5274;51.992;8.518;2023-08-31T02:09:06;57.85;;;53.50;;
10452;SDS011;5274;51.992;8.518;2023-08-31T02:11:32;58.90;;;54.83;;
10452;SDS011;5274;51.992;8.518;2023-08-31T02:14:02;56.63;;;52.75;;
10452;SDS011;5274;51.992;8.518;2023-08-31T02:16:29;57.63;;;53.42;;
10452;SDS011;5274;51.992;8.518;2023-08-31T02:18:56;57.22;;;53.08;;
10452;SDS011;5274;51.992;8.518;2023-08-31T02:21:21;58.35;;;54.00;;
10452;SDS011;5274;51.992;8.518;2023-08-31T02:23:48;57.42;;;53.47;;
10452;SDS011;5274;51.992;8.518;2023-08-31T02:26:14;57.05;;;53.08;;
10452;SDS011;5274;51.992;8.518;2023-08-31T02:28:39;59.10;;;54.92;;
10452;SDS011;5274;51.992;8.518;2023-08-31T02:31:05;58.90;;;54.90;;
10452;SDS011;5274;51.992;8.518;2023-08-31T02:33:31;61.40;;;57.00;;
10452;SDS011;5274;51.992;8.518;2023-08-31T02:35:58;59.97;;;55.83;;
10452;SDS011;5274;51.992;8.518;2023-08-31T02:38:23;59.58;;;55.17;;
10452;SDS011;5274;51.992;8.518;2023-08-31T02:40:51;60.05;;;55.45;;
10452;SDS011;5274;51.992;8.518;2023-08-31T02:43:17;61.80;;;57.08;;
10452;SDS011;5274;51.992;8.518;2023-08-31T02:45:43;62.90;;;57.63;;
10452;SDS011;5274;51.992;8.518;2023-08-31T02:48:09;63.35;;;58.72;;
10452;SDS011;5274;51.992;8.518;2023-08-31T02:50:35;60.65;;;56.38;;
10452;SDS011;5274;51.992;8.518;2023-08-31T02:53:01;59.47;;;55.00;;
10452;SDS011;5274;51.992;8.518;2023-08-31T02:55:27;59.42;;;55.03;;
10452;SDS011;5274;51.992;8.518;2023-08-31T02:57:53;61.08;;;56.42;;
10452;SDS011;5274;51.992;8.518;2023-08-31T03:00:20;61.80;;;57.00;;
10452;SDS011;5274;51.992;8.518;2023-08-31T03:02:49;62.65;;;58.10;;
10452;SDS011;5274;51.992;8.518;2023-08-31T03:05:17;62.13;;;57.10;;
10452;SDS011;5274;51.992;8.518;2023-08-31T03:07:43;61.85;;;57.17;;
10452;SDS011;5274;51.992;8.518;2023-08-31T03:10:09;59.50;;;54.70;;
10452;SDS011;5274;51.992;8.518;2023-08-31T03:12:35;60.40;;;55.80;;
10452;SDS011;5274;51.992;8.518;2023-08-31T03:15:02;63.50;;;58.53;;
10452;SDS011;5274;51.992;8.518;2023-08-31T03:17:28;62.08;;;56.97;;
10452;SDS011;5274;51.992;8.518;2023-08-31T03:19:53;60.85;;;56.47;;
10452;SDS011;5274;51.992;8.518;2023-08-31T03:22:19;59.42;;;54.97;;
10452;SDS011;5274;51.992;8.518;2023-08-31T03:24:45;60.08;;;55.22;;
10452;SDS011;5274;51.992;8.518;2023-08-31T03:27:12;59.15;;;54.70;;
10452;SDS011;5274;51.992;8.518;2023-08-31T03:29:38;59.38;;;54.55;;
10452;SDS011;5274;51.992;8.518;2023-08-31T03:32:05;64.35;;;59.40;;
10452;SDS011;5274;51.992;8.518;2023-08-31T03:34:31;62.80;;;58.38;;
10452;SDS011;5274;51.992;8.518;2023-08-31T03:36:58;63.25;;;58.75;;
10452;SDS011;5274;51.992;8.518;2023-08-31T03:39:24;60.38;;;56.00;;
10452;SDS011;5274;51.992;8.518;2023-08-31T03:41:50;64.97;;;59.70;;
10452;SDS011;5274;51.992;8.518;2023-08-31T03:44:16;63.83;;;58.97;;
10452;SDS011;5274;51.992;8.518;2023-08-31T03:46:42;63.33;;;58.63;;
10452;SDS011;5274;51.992;8.518;2023-08-31T03:49:08;63.90;;;58.83;;
10452;SDS011;5274;51.992;8.518;2023-08-31T03:51:34;61.80;;;57.17;;
10452;SDS011;5274;51.992;8.518;2023-08-31T03:54:00;63.40;;;58.58;;
10452;SDS011;5274;51.992;8.518;2023-08-31T03:56:26;63.78;;;59.00;;
10452;SDS011;5274;51.992;8.518;2023-08-31T03:58:53;65.07;;;60.00;;
10452;SDS011;5274;51.992;8.518;2023-08-31T04:01:19;66.32;;;60.97;;
10452;SDS011;5274;51.992;8.518;2023-08-31T04:03:45;63.13;;;58.42;;
10452;SDS011;5274;51.992;8.518;2023-08-31T04:06:11;62.92;;;58.45;;
10452;SDS011;5274;51.992;8.518;2023-08-31T04:08:37;62.53;;;57.92;;
10452;SDS011;5274;51.992;8.518;2023-08-31T04:11:03;63.30;;;58.28;;
10452;SDS011;5274;51.992;8.518;2023-08-31T04:13:29;64.97;;;60.25;;
10452;SDS011;5274;51.992;8.518;2023-08-31T04:15:55;65.07;;;60.00;;
10452;SDS011;5274;51.992;8.518;2023-08-31T04:18:21;64.68;;;60.00;;
10452;SDS011;5274;51.992;8.518;2023-08-31T04:20:48;66.13;;;61.08;;
10452;SDS011;5274;51.992;8.518;2023-08-31T04:23:14;61.88;;;57.08;;
10452;SDS011;5274;51.992;8.518;2023-08-31T04:25:40;61.72;;;57.17;;
10452;SDS011;5274;51.992;8.518;2023-08-31T04:28:07;64.25;;;59.63;;
10452;SDS011;5274;51.992;8.518;2023-08-31T04:30:33;63.60;;;58.67;;
10452;SDS011;5274;51.992;8.518;2023-08-31T04:32:59;61.13;;;56.55;;
10452;SDS011;5274;51.992;8.518;2023-08-31T04:35:25;61.47;;;57.10;;
10452;SDS011;5274;51.992;8.518;2023-08-31T04:37:51;50.88;;;47.45;;
10452;SDS011;5274;51.992;8.518;2023-08-31T04:40:17;57.33;;;53.13;;
10452;SDS011;5274;51.992;8.518;2023-08-31T04:42:44;59.53;;;55.15;;
10452;SDS011;5274;51.992;8.518;2023-08-31T04:45:10;60.30;;;56.05;;
10452;SDS011;5274;51.992;8.518;2023-08-31T04:47:37;57.72;;;53.85;;
10452;SDS011;5274;51.992;8.518;2023-08-31T04:50:03;58.10;;;53.78;;
10452;SDS011;5274;51.992;8.518;2023-08-31T04:52:31;59.30;;;54.95;;
10452;SDS011;5274;51.992;8.518;2023-08-31T04:54:57;56.83;;;52.55;;
10452;SDS011;5274;51.992;8.518;2023-08-31T04:57:23;54.47;;;50.45;;
10452;SDS011;5274;51.992;8.518;2023-08-31T04:59:50;56.20;;;51.83;;
10452;SDS011;5274;51.992;8.518;2023-08-31T05:02:16;55.05;;;50.75;;
10452;SDS011;5274;51.992;8.518;2023-08-31T05:04:43;53.95;;;50.25;;
10452;SDS011;5274;51.992;8.518;2023-08-31T05:07:09;55.00;;;51.15;;
10452;SDS011;5274;51.992;8.518;2023-08-31T05:09:35;55.05;;;51.00;;
10452;SDS011;5274;51.992;8.518;2023-08-31T05:12:02;56.83;;;52.92;;
10452;SDS011;5274;51.992;8.518;2023-08-31T05:14:28;56.85;;;52.90;;
10452;SDS011;5274;51.992;8.518;2023-08-31T05:16:54;57.90;;;53.55;;
10452;SDS011;5274;51.992;8.518;2023-08-31T05:19:20;55.33;;;51.00;;
10452;SDS011;5274;51.992;8.518;2023-08-31T05:21:46;57.20;;;52.72;;
10452;SDS011;5274;51.992;8.518;2023-08-31T05:24:12;55.90;;;51.72;;
10452;SDS011;5274;51.992;8.518;2023-08-31T05:26:41;58.60;;;54.22;;
10452;SDS011;5274;51.992;8.518;2023-08-31T05:29:07;59.38;;;54.90;;
10452;SDS011;5274;51.992;8.518;2023-08-31T05:31:33;57.40;;;52.78;;
10452;SDS011;5274;51.992;8.518;2023-08-31T05:33:59;56.25;;;52.08;;
10452;SDS011;5274;51.992;8.518;2023-08-31T05:36:25;55.60;;;51.38;;
10452;SDS011;5274;51.992;8.518;2023-08-31T05:38:51;57.90;;;53.53;;
10452;SDS011;5274;51.992;8.518;2023-08-31T05:41:17;57.58;;;52.85;;
10452;SDS011;5274;51.992;8.518;2023-08-31T05:43:43;54.70;;;50.50;;
10452;SDS011;5274;51.992;8.518;2023-08-31T05:46:10;62.95;;;57.80;;
10452;SDS011;5274;51.992;8.518;2023-08-31T05:48:36;61.72;;;56.78;;
10452;SDS011;5274;51.992;8.518;2023-08-31T05:51:02;59.95;;;55.47;;
10452;SDS011;5274;51.992;8.518;2023-08-31T05:53:31;56.47;;;52.13;;
10452;SDS011;5274;51.992;8.518;2023-08-31T05:55:57;60.58;;;55.72;;
10452;SDS011;5274;51.992;8.518;2023-08-31T05:58:30;59.28;;;54.47;;
10452;SDS011;5274;51.992;8.518;2023-08-31T06:00:57;59.20;;;54.55;;
10452;SDS011;5274;51.992;8.518;2023-08-31T06:03:23;57.65;;;52.95;;
10452;SDS011;5274;51.992;8.518;2023-08-31T06:05:49;57.90;;;53.58;;
10452;SDS011;5274;51.992;8.518;2023-08-31T06:08:15;56.70;;;52.00;;
10452;SDS011;5274;51.992;8.518;2023-08-31T06:10:41;53.42;;;49.20;;
10452;SDS011;5274;51.992;8.518;2023-08-31T06:13:07;58.17;;;53.65;;
10452;SDS011;5274;51.992;8.518;2023-08-31T06:15:33;57.30;;;53.28;;
10452;SDS011;5274;51.992;8.518;2023-08-31T06:17:59;58.28;;;53.92;;
10452;SDS011;5274;51.992;8.518;2023-08-31T06:20:25;57.10;;;52.75;;
10452;SDS011;5274;51.992;8.518;2023-08-31T06:22:51;54.03;;;50.03;;
10452;SDS011;5274;51.992;8.518;2023-08-31T06:25:17;53.05;;;49.53;;
10452;SDS011;5274;51.992;8.518;2023-08-31T06:27:44;55.58;;;51.25;;
10452;SDS011;5274;51.992;8.518;2023-08-31T06:30:10;55.05;;;50.42;;
10452;SDS011;5274;51.992;8.518;2023-08-31T06:32:46;53.45;;;49.63;;
10452;SDS011;5274;51.992;8.518;2023-08-31T06:35:12;55.85;;;51.47;;
10452;SDS011;5274;51.992;8.518;2023-08-31T06:37:39;54.10;;;49.50;;
10452;SDS011;5274;51.992;8.518;2023-08-31T06:40:05;52.20;;;48.35;;
10452;SDS011;5274;51.992;8.518;2023-08-31T06:42:33;54.83;;;50.83;;
10452;SDS011;5274;51.992;8.518;2023-08-31T06:44:59;55.05;;;50.95;;
10452;SDS011;5274;51.992;8.518;2023-08-31T06:47:25;54.58;;;50.10;;
10452;SDS011;5274;51.992;8.518;2023-08-31T06:49:51;55.10;;;51.20;;
10452;SDS011;5274;51.992;8.518;2023-08-31T06:52:17;54.10;;;50.22;;
10452;SDS011;5274;51.992;8.518;2023-08-31T06:54:43;56.60;;;51.67;;
10452;SDS011;5274;51.992;8.518;2023-08-31T06:57:09;57.35;;;52.90;;
10452;SDS011;5274;51.992;8.518;2023-08-31T06:59:35;54.95;;;50.63;;
10452;SDS011;5274;51.992;8.518;2023-08-31T07:02:01;53.63;;;49.45;;
10452;SDS011;5274;51.992;8.518;2023-08-31T07:04:27;54.85;;;50.38;;
10452;SDS011;5274;51.992;8.518;2023-08-31T07:06:53;60.30;;;55.58;;
10452;SDS011;5274;51.992;8.518;2023-08-31T07:09:19;60.83;;;56.13;;
10452;SDS011;5274;51.992;8.518;2023-08-31T07:11:45;60.63;;;55.95;;
10452;SDS011;5274;51.992;8.518;2023-08-31T07:14:11;60.47;;;55.60;;
10452;SDS011;5274;51.992;8.518;2023-08-31T07:16:37;66.82;;;61.58;;
10452;SDS011;5274;51.992;8.518;2023-08-31T07:19:03;67.57;;;62.38;;
10452;SDS011;5274;51.992;8.518;2023-08-31T07:21:29;65.68;;;60.45;;
10452;SDS011;5274;51.992;8.518;2023-08-31T07:23:55;66.75;;;61.45;;
10452;SDS011;5274;51.992;8.518;2023-08-31T07:26:21;66.13;;;60.78;;
10452;SDS011;5274;51.992;8.518;2023-08-31T07:28:47;68.43;;;62.92;;
10452;SDS011;5274;51.992;8.518;2023-08-31T07:31:13;66.22;;;61.25;;
10452;SDS011;5274;51.992;8.518;2023-08-31T07:33:40;64.50;;;59.58;;
10452;SDS011;5274;51.992;8.518;2023-08-31T07:36:06;65.25;;;60.65;;
10452;SDS011;5274;51.992;8.518;2023-08-31T07:38:32;64.18;;;59.47;;
10452;SDS011;5274;51.992;8.518;2023-08-31T07:40:59;64.75;;;60.15;;
10452;SDS011;5274;51.992;8.518;2023-08-31T07:43:25;65.35;;;60.63;;
10452;SDS011;5274;51.992;8.518;2023-08-31T07:45:52;62.00;;;57.50;;
10452;SDS011;5274;51.992;8.518;2023-08-31T07:48:18;62.88;;;58.50;;
10452;SDS011;5274;51.992;8.518;2023-08-31T07:50:44;61.55;;;57.00;;
10452;SDS011;5274;51.992;8.518;2023-08-31T07:53:10;56.63;;;52.38;;
10452;SDS011;5274;51.992;8.518;2023-08-31T07:55:36;60.10;;;55.00;;
10452;SDS011;5274;51.992;8.518;2023-08-31T07:58:02;59.00;;;54.70;;
10452;SDS011;5274;51.992;8.518;2023-08-31T08:00:28;61.92;;;57.42;;
10452;SDS011;5274;51.992;8.518;2023-08-31T08:02:54;63.03;;;58.33;;
10452;SDS011;5274;51.992;8.518;2023-08-31T08:05:20;63.33;;;58.35;;
10452;SDS011;5274;51.992;8.518;2023-08-31T08:07:46;60.47;;;55.85;;
10452;SDS011;5274;51.992;8.518;2023-08-31T08:10:13;59.42;;;54.83;;
10452;SDS011;5274;51.992;8.518;2023-08-31T08:12:39;63.00;;;58.10;;
10452;SDS011;5274;51.992;8.518;2023-08-31T08:15:08;63.45;;;58.47;;
10452;SDS011;5274;51.992;8.518;2023-08-31T08:17:34;62.15;;;57.33;;
10452;SDS011;5274;51.992;8.518;2023-08-31T08:20:00;60.50;;;56.10;;
10452;SDS011;5274;51.992;8.518;2023-08-31T08:22:26;60.45;;;56.05;;
10452;SDS011;5274;51.992;8.518;2023-08-31T08:24:52;60.22;;;55.88;;
10452;SDS011;5274;51.992;8.518;2023-08-31T08:27:18;59.28;;;54.97;;
10452;SDS011;5274;51.992;8.518;2023-08-31T08:29:45;61.17;;;56.70;;
10452;SDS011;5274;51.992;8.518;2023-08-31T08:32:11;61.95;;;57.08;;
10452;SDS011;5274;51.992;8.518;2023-08-31T08:34:37;62.50;;;57.95;;
10452;SDS011;5274;51.992;8.518;2023-08-31T08:37:03;61.92;;;57.13;;
10452;SDS011;5274;51.992;8.518;2023-08-31T08:39:30;62.22;;;57.53;;
10452;SDS011;5274;51.992;8.518;2023-08-31T08:41:57;63.72;;;58.85;;
10452;SDS011;5274;51.992;8.518;2023-08-31T08:44:24;61.45;;;56.85;;
10452;SDS011;5274;51.992;8.518;2023-08-31T08:46:51;63.75;;;59.05;;
10452;SDS011;5274;51.992;8.518;2023-08-31T08:49:18;65.75;;;60.85;;
10452;SDS011;5274;51.992;8.518;2023-08-31T08:51:44;65.47;;;60.47;;
10452;SDS011;5274;51.992;8.518;2023-08-31T08:54:12;63.47;;;58.97;;
10452;SDS011;5274;51.992;8.518;2023-08-31T08:56:38;65.35;;;60.75;;
10452;SDS011;5274;51.992;8.518;2023-08-31T08:59:04;68.43;;;63.28;;
10452;SDS011;5274;51.992;8.518;2023-08-31T09:01:31;67.45;;;62.22;;
10452;SDS011;5274;51.992;8.518;2023-08-31T09:03:58;68.93;;;63.92;;
10452;SDS011;5274;51.992;8.518;2023-08-31T09:06:24;68.55;;;63.50;;
10452;SDS011;5274;51.992;8.518;2023-08-31T09:08:54;67.90;;;62.72;;
10452;SDS011;5274;51.992;8.518;2023-08-31T09:11:21;68.00;;;63.05;;
10452;SDS011;5274;51.992;8.518;2023-08-31T09:13:47;67.22;;;62.42;;
10452;SDS011;5274;51.992;8.518;2023-08-31T09:16:23;66.78;;;62.08;;
10452;SDS011;5274;51.992;8.518;2023-08-31T09:18:50;65.13;;;60.45;;
10452;SDS011;5274;51.992;8.518;2023-08-31T09:21:17;67.28;;;62.42;;
10452;SDS011;5274;51.992;8.518;2023-08-31T09:23:46;63.97;;;59.42;;
10452;SDS011;5274;51.992;8.518;2023-08-31T09:26:13;65.20;;;60.78;;
10452;SDS011;5274;51.992;8.518;2023-08-31T09:28:40;63.55;;;59.20;;
10452;SDS011;5274;51.992;8.518;2023-08-31T09:31:07;64.55;;;59.97;;
10452;SDS011;5274;51.992;8.518;2023-08-31T09:33:34;59.55;;;55.53;;
10452;SDS011;5274;51.992;8.518;2023-08-31T09:36:01;63.17;;;58.97;;
10452;SDS011;5274;51.992;8.518;2023-08-31T09:38:28;60.17;;;56.10;;
10452;SDS011;5274;51.992;8.518;2023-08-31T09:41:04;54.55;;;50.53;;
10452;SDS011;5274;51.992;8.518;2023-08-31T09:43:31;54.42;;;50.97;;
10452;SDS011;5274;51.992;8.518;2023-08-31T09:45:57;55.30;;;51.53;;
10452;SDS011;5274;51.992;8.518;2023-08-31T09:48:24;55.28;;;51.83;;
10452;SDS011;5274;51.992;8.518;2023-08-31T09:50:50;55.50;;;51.90;;
10452;SDS011;5274;51.992;8.518;2023-08-31T09:53:17;54.22;;;50.50;;
10452;SDS011;5274;51.992;8.518;2023-08-31T09:55:44;52.53;;;49.35;;
10452;SDS011;5274;51.992;8.518;2023-08-31T09:58:12;51.78;;;48.35;;
10452;SDS011;5274;51.992;8.518;2023-08-31T10:00:38;51.28;;;48.08;;
10452;SDS011;5274;51.992;8.518;2023-08-31T10:03:04;50.85;;;47.72;;
10452;SDS011;5274;51.992;8.518;2023-08-31T10:05:31;55.63;;;51.75;;
10452;SDS011;5274;51.992;8.518;2023-08-31T10:07:58;52.80;;;49.25;;
10452;SDS011;5274;51.992;8.518;2023-08-31T10:10:24;52.20;;;48.63;;
10452;SDS011;5274;51.992;8.518;2023-08-31T10:12:51;51.63;;;48.42;;
10452;SDS011;5274;51.992;8.518;2023-08-31T10:15:17;53.20;;;49.40;;
10452;SDS011;5274;51.992;8.518;2023-08-31T10:17:44;53.08;;;49.65;;
10452;SDS011;5274;51.992;8.518;2023-08-31T10:20:14;55.25;;;51.55;;
10452;SDS011;5274;51.992;8.518;2023-08-31T10:22:41;52.55;;;49.25;;
10452;SDS011;5274;51.992;8.518;2023-08-31T10:25:07;49.05;;;45.92;;
10452;SDS011;5274;51.992;8.518;2023-08-31T10:27:39;51.70;;;48.35;;
10452;SDS011;5274;51.992;8.518;2023-08-31T10:32:41;51.90;;;48.40;;
10452;SDS011;5274;51.992;8.518;2023-08-31T10:35:10;54.15;;;50.30;;
10452;SDS011;5274;51.992;8.518;2023-08-31T10:37:36;51.63;;;48.33;;
10452;SDS011;5274;51.992;8.518;2023-08-31T10:40:11;52.67;;;49.38;;
10452;SDS011;5274;51.992;8.518;2023-08-31T10:45:09;54.70;;;51.20;;
10452;SDS011;5274;51.992;8.518;2023-08-31T10:47:41;52.55;;;49.45;;
10452;SDS011;5274;51.992;8.518;2023-08-31T10:50:18;56.22;;;52.42;;
10452;SDS011;5274;51.992;8.518;2023-08-31T10:52:45;55.13;;;51.45;;
10452;SDS011;5274;51.992;8.518;2023-08-31T10:55:11;57.22;;;53.40;;
10452;SDS011;5274;51.992;8.518;2023-08-31T10:57:37;55.85;;;52.33;;
10452;SDS011;5274;51.992;8.518;2023-08-31T11:00:04;55.70;;;52.20;;
10452;SDS011;5274;51.992;8.518;2023-08-31T11:05:12;51.97;;;48.47;;
10452;SDS011;5274;51.992;8.518;2023-08-31T11:10:08;50.47;;;47.25;;
10452;SDS011;5274;51.992;8.518;2023-08-31T11:12:35;49.45;;;46.53;;
10452;SDS011;5274;51.992;8.518;2023-08-31T11:15:01;55.70;;;52.00;;
10452;SDS011;5274;51.992;8.518;2023-08-31T11:17:28;51.03;;;47.92;;
10452;SDS011;5274;51.992;8.518;2023-08-31T11:19:55;56.17;;;52.58;;
10452;SDS011;5274;51.992;8.518;2023-08-31T11:22:21;53.78;;;50.38;;
10452;SDS011;5274;51.992;8.518;2023-08-31T11:24:47;53.95;;;50.60;;
10452;SDS011;5274;51.992;8.518;2023-08-31T11:27:13;51.70;;;48.50;;
10452;SDS011;5274;51.992;8.518;2023-08-31T11:29:42;53.20;;;50.08;;
10452;SDS011;5274;51.992;8.518;2023-08-31T11:32:09;50.50;;;47.50;;
10452;SDS011;5274;51.992;8.518;2023-08-31T11:34:35;52.78;;;49.47;;
10452;SDS011;5274;51.992;8.518;2023-08-31T11:37:05;51.85;;;48.75;;
10452;SDS011;5274;51.992;8.518;2023-08-31T11:39:31;50.95;;;47.95;;
10452;SDS011;5274;51.992;8.518;2023-08-31T11:41:57;53.70;;;50.50;;
10452;SDS011;5274;51.992;8.518;2023-08-31T11:44:23;54.00;;;50.58;;
10452;SDS011;5274;51.992;8.518;2023-08-31T11:46:49;53.42;;;50.22;;
10452;SDS011;5274;51.992;8.518;2023-08-31T11:49:17;51.15;;;47.85;;
10452;SDS011;5274;51.992;8.518;2023-08-31T11:51:43;52.63;;;49.33;;
10452;SDS011;5274;51.992;8.518;2023-08-31T11:54:10;50.78;;;47.65;;
10452;SDS011;5274;51.992;8.518;2023-08-31T11:59:08;51.70;;;48.60;;
10452;SDS011;5274;51.992;8.518;2023-08-31T12:01:39;52.28;;;48.97;;
10452;SDS011;5274;51.992;8.518;2023-08-31T12:04:09;52.03;;;48.63;;
10452;SDS011;5274;51.992;8.518;2023-08-31T12:06:35;47.40;;;44.20;;
10452;SDS011;5274;51.992;8.518;2023-08-31T12:09:01;51.67;;;48.47;;
10452;SDS011;5274;51.992;8.518;2023-08-31T12:11:29;52.45;;;49.28;;
10452;SDS011;5274;51.992;8.518;2023-08-31T12:13:59;49.60;;;46.30;;
10452;SDS011;5274;51.992;8.518;2023-08-31T12:16:31;54.63;;;51.13;;
10452;SDS011;5274;51.992;8.518;2023-08-31T12:18:58;53.22;;;49.83;;
10452;SDS011;5274;51.992;8.518;2023-08-31T12:21:25;51.53;;;48.25;;
10452;SDS011;5274;51.992;8.518;2023-08-31T12:23:50;47.55;;;44.85;;
10452;SDS011;5274;51.992;8.518;2023-08-31T12:26:16;51.58;;;48.35;;
10452;SDS011;5274;51.992;8.518;2023-08-31T12:28:42;51.58;;;48.47;;
10452;SDS011;5274;51.992;8.518;2023-08-31T12:31:08;52.50;;;49.15;;
10452;SDS011;5274;51.992;8.518;2023-08-31T12:33:34;51.92;;;48.83;;
10452;SDS011;5274;51.992;8.518;2023-08-31T12:36:00;52.53;;;49.30;;
10452;SDS011;5274;51.992;8.518;2023-08-31T12:38:27;51.92;;;48.80;;
10452;SDS011;5274;51.992;8.518;2023-08-31T12:40:53;54.90;;;51.55;;
10452;SDS011;5274;51.992;8.518;2023-08-31T12:43:19;54.10;;;50.88;;
10452;SDS011;5274;51.992;8.518;2023-08-31T12:45:45;49.58;;;46.47;;
10452;SDS011;5274;51.992;8.518;2023-08-31T12:48:11;54.42;;;51.03;;
10452;SDS011;5274;51.992;8.518;2023-08-31T12:50:37;52.83;;;49.33;;
10452;SDS011;5274;51.992;8.518;2023-08-31T12:53:03;52.70;;;49.05;;
10452;SDS011;5274;51.992;8.518;2023-08-31T12:55:29;53.33;;;50.03;;
10452;SDS011;5274;51.992;8.518;2023-08-31T12:57:55;53.22;;;49.72;;
10452;SDS011;5274;51.992;8.518;2023-08-31T13:00:22;52.83;;;49.53;;
10452;SDS011;5274;51.992;8.518;2023-08-31T13:02:48;52.40;;;49.10;;
10452;SDS011;5274;51.992;8.518;2023-08-31T13:05:16;48.08;;;45.10;;
10452;SDS011;5274;51.992;8.518;2023-08-31T13:07:42;51.75;;;48.22;;
10452;SDS011;5274;51.992;8.518;2023-08-31T13:10:08;53.17;;;49.88;;
10452;SDS011;5274;51.992;8.518;2023-08-31T13:12:34;53.08;;;49.88;;
10452;SDS011;5274;51.992;8.518;2023-08-31T13:15:00;55.55;;;52.13;;
10452;SDS011;5274;51.992;8.518;2023-08-31T13:17:26;55.67;;;52.28;;
10452;SDS011;5274;51.992;8.518;2023-08-31T13:19:53;55.15;;;51.78;;
10452;SDS011;5274;51.992;8.518;2023-08-31T13:22:20;54.28;;;50.90;;
10452;SDS011;5274;51.992;8.518;2023-08-31T13:24:46;55.28;;;51.88;;
10452;SDS011;5274;51.992;8.518;2023-08-31T13:27:12;53.33;;;50.13;;
10452;SDS011;5274;51.992;8.518;2023-08-31T13:29:38;53.55;;;50.03;;
10452;SDS011;5274;51.992;8.518;2023-08-31T13:32:05;55.40;;;51.35;;
10452;SDS011;5274;51.992;8.518;2023-08-31T13:34:32;55.38;;;51.38;;
10452;SDS011;5274;51.992;8.518;2023-08-31T13:36:58;54.90;;;51.33;;
10452;SDS011;5274;51.992;8.518;2023-08-31T13:39:25;53.95;;;50.58;;
10452;SDS011;5274;51.992;8.518;2023-08-31T13:41:51;55.53;;;51.97;;
10452;SDS011;5274;51.992;8.518;2023-08-31T13:44:18;54.83;;;51.40;;
10452;SDS011;5274;51.992;8.518;2023-08-31T13:46:45;54.35;;;50.95;;
10452;SDS011;5274;51.992;8.518;2023-08-31T13:49:11;53.55;;;50.35;;
10452;SDS011;5274;51.992;8.518;2023-08-31T13:51:37;53.97;;;50.60;;
10452;SDS011;5274;51.992;8.518;2023-08-31T13:54:03;48.63;;;45.55;;
10452;SDS011;5274;51.992;8.518;2023-08-31T13:56:29;48.60;;;45.67;;
10452;SDS011;5274;51.992;8.518;2023-08-31T13:58:55;47.20;;;44.40;;
10452;SDS011;5274;51.992;8.518;2023-08-31T14:01:21;43.92;;;41.42;;
10452;SDS011;5274;51.992;8.518;2023-08-31T14:03:47;45.03;;;42.33;;
10452;SDS011;5274;51.992;8.518;2023-08-31T14:06:13;47.38;;;44.63;;
10452;SDS011;5274;51.992;8.518;2023-08-31T14:08:39;46.35;;;43.65;;
10452;SDS011;5274;51.992;8.518;2023-08-31T14:11:05;46.05;;;43.45;;
10452;SDS011;5274;51.992;8.518;2023-08-31T14:13:31;43.13;;;40.65;;
10452;SDS011;5274;51.992;8.518;2023-08-31T14:15:57;47.45;;;44.47;;
10452;SDS011;5274;51.992;8.518;2023-08-31T14:18:24;48.20;;;45.40;;
10452;SDS011;5274;51.992;8.518;2023-08-31T14:20:53;49.00;;;46.10;;
10452;SDS011;5274;51.992;8.518;2023-08-31T14:23:19;46.33;;;43.55;;
10452;SDS011;5274;51.992;8.518;2023-08-31T14:25:45;49.55;;;46.65;;
10452;SDS011;5274;51.992;8.518;2023-08-31T14:28:11;49.47;;;46.47;;
10452;SDS011;5274;51.992;8.518;2023-08-31T14:30:37;49.75;;;46.95;;
10452;SDS011;5274;51.992;8.518;2023-08-31T14:33:03;50.38;;;47.47;;
10452;SDS011;5274;51.992;8.518;2023-08-31T14:35:29;49.90;;;47.00;;
10452;SDS011;5274;51.992;8.518;2023-08-31T14:37:56;49.55;;;46.65;;
10452;SDS011;5274;51.992;8.518;2023-08-31T14:40:22;50.60;;;47.60;;
10452;SDS011;5274;51.992;8.518;2023-08-31T14:42:48;51.60;;;48.50;;
10452;SDS011;5274;51.992;8.518;2023-08-31T14:45:14;53.92;;;50.63;;